Time;durP1;ratioP1;P1;durP2;ratioP2;P2;SDS_P1;SDS_P2;PMS_P1;PMS_P2;Temp;Humidity;BMP_temperature;BMP_pressure;BME280_temperature;BME280_humidity;BME280_pressure;Samples;Min_cycle;Max_cycle;Signal;HPM_P1;HPM_P2
2022/03/22 00:00:41;;;;;;;25.38;15.27;;;;;;;7.39;99.26;103193.69;5052224;28;20048;-31
2022/03/22 00:03:09;;;;;;;21.25;12.98;;;;;;;7.39;99.32;103193.69;5051396;28;20048;-29
2022/03/22 00:05:40;;;;;;;19.02;12.55;;;;;;;7.38;99.55;103197.53;5052262;28;20060;-31
2022/03/22 00:08:08;;;;;;;22.55;14.05;;;;;;;7.37;99.46;103192.19;5052080;28;20525;-28
2022/03/22 00:10:36;;;;;;;28.00;16.75;;;;;;;7.36;99.76;103182.16;5051615;28;20195;-33
2022/03/22 00:13:05;;;;;;;27.85;17.95;;;;;;;7.36;100.00;103190.50;5051976;28;20036;-27
2022/03/22 00:15:34;;;;;;;30.13;18.23;;;;;;;7.36;100.00;103180.22;5052173;28;20052;-29
2022/03/22 00:18:23;;;;;;;23.88;15.43;;;;;;;7.34;100.00;103184.31;5051132;28;20057;-35
2022/03/22 00:20:50;;;;;;;22.27;14.27;;;;;;;7.35;100.00;103189.63;5051940;28;20585;-33
2022/03/22 00:23:19;;;;;;;31.13;19.45;;;;;;;7.36;100.00;103190.50;5051389;28;20060;-32
2022/03/22 00:25:47;;;;;;;22.83;15.13;;;;;;;7.35;100.00;103180.44;5049180;28;20056;-32
2022/03/22 00:28:16;;;;;;;25.17;16.15;;;;;;;7.35;100.00;103174.91;5050173;28;20135;-27
2022/03/22 00:30:44;;;;;;;26.27;17.08;;;;;;;7.35;100.00;103191.56;5049102;28;20041;-37
2022/03/22 00:33:12;;;;;;;21.67;13.30;;;;;;;7.33;100.00;103182.59;5049133;28;20040;-27
2022/03/22 00:35:41;;;;;;;20.65;13.52;;;;;;;7.31;100.00;103185.59;5049643;28;20052;-29
2022/03/22 00:38:11;;;;;;;21.25;13.45;;;;;;;7.28;100.00;103185.16;5048532;28;20053;-29
2022/03/22 00:40:41;;;;;;;20.80;13.15;;;;;;;7.25;100.00;103190.09;5051157;28;20037;-30
2022/03/22 00:43:09;;;;;;;20.15;12.15;;;;;;;7.24;100.00;103190.31;5051778;28;20055;-35
2022/03/22 00:45:37;;;;;;;19.58;12.00;;;;;;;7.23;100.00;103199.72;5051064;28;20045;-29
2022/03/22 00:48:08;;;;;;;23.50;14.57;;;;;;;7.22;100.00;103192.44;5051539;28;20174;-32
2022/03/22 00:50:38;;;;;;;21.33;13.20;;;;;;;7.19;100.00;103193.75;5050792;28;20041;-29
2022/03/22 00:53:08;;;;;;;17.25;11.27;;;;;;;7.18;100.00;103192.06;5050601;28;20067;-30
2022/03/22 00:55:37;;;;;;;17.85;11.77;;;;;;;7.15;100.00;103191.66;5051598;28;20059;-29
2022/03/22 00:58:04;;;;;;;18.40;11.35;;;;;;;7.12;100.00;103187.38;5051232;28;20041;-31
2022/03/22 01:00:33;;;;;;;20.38;12.93;;;;;;;7.10;100.00;103189.53;5047168;28;20052;-36
2022/03/22 01:03:03;;;;;;;20.52;12.57;;;;;;;7.08;100.00;103186.09;5051255;28;20072;-29
2022/03/22 01:05:32;;;;;;;22.23;15.00;;;;;;;7.05;100.00;103186.53;5051483;28;20044;-29
2022/03/22 01:08:02;;;;;;;18.17;11.80;;;;;;;7.03;100.00;103188.69;5050669;28;20072;-28
2022/03/22 01:10:33;;;;;;;23.42;14.85;;;;;;;7.02;100.00;103189.75;5050048;28;20045;-31
2022/03/22 01:13:00;;;;;;;21.52;13.77;;;;;;;7.02;100.00;103186.13;5051382;28;20401;-30
2022/03/22 01:15:33;;;;;;;18.55;12.05;;;;;;;7.01;100.00;103178.84;5050509;28;20044;-31
2022/03/22 01:18:05;;;;;;;19.88;13.23;;;;;;;7.00;100.00;103178.00;5051582;28;20045;-29
2022/03/22 01:20:35;;;;;;;21.60;13.07;;;;;;;6.99;100.00;103184.66;5050784;28;20107;-29
2022/03/22 01:23:04;;;;;;;23.38;15.30;;;;;;;6.98;100.00;103177.41;5051249;28;20045;-30
2022/03/22 01:25:34;;;;;;;31.20;17.92;;;;;;;6.99;100.00;103183.81;5051286;28;20048;-29
2022/03/22 01:28:04;;;;;;;31.58;20.60;;;;;;;6.97;100.00;103175.69;5050228;28;20040;-32
2022/03/22 01:30:32;;;;;;;25.92;15.60;;;;;;;6.98;100.00;103185.72;5051250;28;20045;-31
2022/03/22 01:33:00;;;;;;;22.23;13.60;;;;;;;6.96;100.00;103174.00;5051398;28;20415;-30
2022/03/22 01:35:31;;;;;;;29.95;19.42;;;;;;;6.96;100.00;103179.53;5050497;28;20128;-32
2022/03/22 01:37:59;;;;;;;27.25;17.42;;;;;;;6.95;100.00;103174.22;5051198;28;20044;-31
2022/03/22 01:40:28;;;;;;;27.63;17.15;;;;;;;6.92;100.00;103175.50;5051126;28;20041;-29
2022/03/22 01:42:58;;;;;;;24.85;14.65;;;;;;;6.91;100.00;103179.34;5053756;28;20045;-33
2022/03/22 01:45:26;;;;;;;19.58;12.82;;;;;;;6.88;100.00;103177.00;5055124;28;20073;-30
2022/03/22 01:47:59;;;;;;;21.83;13.98;;;;;;;6.86;100.00;103176.34;5055077;28;20029;-36
2022/03/22 01:50:27;;;;;;;25.48;15.18;;;;;;;6.82;100.00;103175.94;5054084;28;20044;-30
2022/03/22 01:52:56;;;;;;;22.75;15.18;;;;;;;6.81;100.00;103174.22;5054759;28;20041;-33
2022/03/22 01:55:25;;;;;;;27.02;16.80;;;;;;;6.80;100.00;103172.50;5054781;28;20040;-32
2022/03/22 01:57:54;;;;;;;21.75;13.57;;;;;;;6.78;100.00;103173.84;5043418;28;20049;-29
2022/03/22 02:00:24;;;;;;;20.73;13.10;;;;;;;6.77;100.00;103170.19;5051359;28;20190;-35
2022/03/22 02:05:55;;;;;;;23.00;13.43;;;;;;;6.73;100.00;103170.84;5054473;28;20041;-32
2022/03/22 02:08:28;;;;;;;24.27;14.52;;;;;;;6.72;100.00;103170.00;5044858;28;20114;-27
2022/03/22 02:10:59;;;;;;;20.45;12.20;;;;;;;6.71;100.00;103162.75;5053772;28;20045;-31
2022/03/22 02:13:27;;;;;;;22.83;14.48;;;;;;;6.70;100.00;103163.81;5043698;28;20048;-35
2022/03/22 02:15:59;;;;;;;25.70;16.63;;;;;;;6.69;100.00;103164.88;5050896;28;20056;-29
2022/03/22 02:18:27;;;;;;;28.57;18.07;;;;;;;6.69;100.00;103164.03;5053738;28;20075;-33
2022/03/22 02:20:55;;;;;;;25.33;16.45;;;;;;;6.66;100.00;103159.75;5053085;28;20052;-32
2022/03/22 02:23:42;;;;;;;27.15;16.70;;;;;;;6.67;100.00;103168.94;5054429;28;20088;-35
2022/03/22 02:26:10;;;;;;;23.10;14.27;;;;;;;6.64;100.00;103166.59;5053748;28;20506;-30
2022/03/22 02:28:38;;;;;;;21.98;14.75;;;;;;;6.63;100.00;103164.88;5054584;28;20052;-39
2022/03/22 02:31:06;;;;;;;24.17;15.68;;;;;;;6.63;100.00;103164.88;5053208;28;20505;-29
2022/03/22 02:33:34;;;;;;;22.90;14.13;;;;;;;6.60;100.00;103160.59;5054056;28;20041;-32
2022/03/22 02:36:01;;;;;;;20.85;13.63;;;;;;;6.59;100.00;103175.59;5054130;28;20067;-32
2022/03/22 02:38:29;;;;;;;20.92;13.82;;;;;;;6.58;100.00;103165.56;5052962;28;20057;-32
2022/03/22 02:40:59;;;;;;;28.25;18.52;;;;;;;6.59;100.00;103160.84;5054084;28;20056;-35
2022/03/22 02:43:27;;;;;;;30.08;19.75;;;;;;;6.55;100.00;103164.06;5054038;28;20052;-29
2022/03/22 02:45:54;;;;;;;27.55;18.13;;;;;;;6.53;100.00;103168.97;5053213;28;20385;-31
2022/03/22 02:48:22;;;;;;;31.10;18.90;;;;;;;6.52;100.00;103164.50;5053796;28;20122;-28
2022/03/22 02:50:50;;;;;;;32.60;20.42;;;;;;;6.52;100.00;103161.72;5053775;28;20041;-29
2022/03/22 02:53:18;;;;;;;25.35;15.13;;;;;;;6.51;100.00;103161.94;5051785;28;20508;-33
2022/03/22 02:55:46;;;;;;;22.90;14.10;;;;;;;6.48;100.00;103162.34;5053562;28;20041;-29
2022/03/22 02:58:14;;;;;;;23.08;14.80;;;;;;;6.47;100.00;103163.41;5053408;28;20048;-30
2022/03/22 03:00:44;;;;;;;22.20;14.27;;;;;;;6.44;100.00;103161.91;5053082;28;20480;-29
2022/03/22 03:03:11;;;;;;;23.08;14.45;;;;;;;6.42;100.00;103158.50;5053541;28;20048;-31
2022/03/22 03:05:39;;;;;;;23.42;15.13;;;;;;;6.41;100.00;103161.50;5053451;28;20116;-35
2022/03/22 03:08:08;;;;;;;22.92;14.93;;;;;;;6.39;100.00;103160.88;5052460;28;20037;-29
2022/03/22 03:10:36;;;;;;;26.42;16.30;;;;;;;6.38;100.00;103156.41;5053317;28;20087;-37
2022/03/22 03:13:05;;;;;;;25.67;16.35;;;;;;;6.37;100.00;103155.56;5052430;28;20052;-31
2022/03/22 03:15:34;;;;;;;24.20;15.18;;;;;;;6.35;100.00;103159.59;5053432;28;20052;-36
2022/03/22 03:18:02;;;;;;;22.65;14.45;;;;;;;6.33;100.00;103170.91;5053075;28;20052;-29
2022/03/22 03:20:30;;;;;;;32.97;21.27;;;;;;;6.34;100.00;103169.84;5052497;28;20501;-29
2022/03/22 03:22:58;;;;;;;30.13;19.80;;;;;;;6.32;100.00;103169.19;5051854;28;20041;-27
2022/03/22 03:25:26;;;;;;;24.42;16.08;;;;;;;6.31;100.00;103161.09;5053371;28;20041;-27
2022/03/22 03:27:54;;;;;;;23.13;14.77;;;;;;;6.27;100.00;103166.22;5052193;28;20057;-31
2022/03/22 03:30:21;;;;;;;23.33;15.60;;;;;;;6.25;100.00;103162.78;5053087;28;20495;-33
2022/03/22 03:32:51;;;;;;;21.92;14.13;;;;;;;6.23;100.00;103157.47;5052925;28;20143;-34
2022/03/22 03:35:18;;;;;;;21.33;14.02;;;;;;;6.22;100.00;103157.69;5051761;28;20057;-31
2022/03/22 03:37:46;;;;;;;21.27;12.50;;;;;;;6.19;100.00;103158.94;5052949;28;20084;-28
2022/03/22 03:40:14;;;;;;;19.92;12.90;;;;;;;6.17;100.00;103160.25;5052790;28;20053;-33
2022/03/22 03:42:46;;;;;;;23.25;15.23;;;;;;;6.15;100.00;103167.94;5045543;28;20044;-29
2022/03/22 03:48:01;;;;;;;22.85;13.77;;;;;;;6.09;100.00;103166.00;5046688;28;20486;-31
2022/03/22 03:50:29;;;;;;;23.38;14.52;;;;;;;6.06;100.00;103170.06;5052777;28;20048;-28
2022/03/22 03:52:57;;;;;;;20.42;13.35;;;;;;;6.04;100.00;103169.41;5052456;28;20044;-33
2022/03/22 03:55:24;;;;;;;25.25;15.32;;;;;;;6.04;100.00;103176.88;5051624;28;20309;-28
2022/03/22 03:57:52;;;;;;;22.02;14.32;;;;;;;6.01;100.00;103177.28;5052263;28;20041;-29
2022/03/22 04:00:20;;;;;;;27.80;17.95;;;;;;;6.02;100.00;103167.91;5052250;28;20048;-33
2022/03/22 04:02:47;;;;;;;24.58;15.38;;;;;;;6.01;100.00;103171.75;5051465;28;20519;-27
2022/03/22 04:05:17;;;;;;;27.42;18.05;;;;;;;5.98;100.00;103173.06;5052158;28;20088;-35
2022/03/22 04:07:45;;;;;;;38.00;24.08;;;;;;;5.96;100.00;103174.31;5052140;28;20122;-32
2022/03/22 04:10:12;;;;;;;26.65;16.70;;;;;;;5.95;100.00;103169.84;5051302;28;20056;-26
2022/03/22 04:12:42;;;;;;;24.30;15.18;;;;;;;5.94;100.00;103171.75;5052051;28;20127;-29
2022/03/22 04:15:10;;;;;;;30.35;18.98;;;;;;;5.92;100.00;103175.81;5052063;28;20048;-31
2022/03/22 04:17:39;;;;;;;27.17;17.90;;;;;;;5.88;100.00;103173.44;5050669;28;20051;-32
2022/03/22 04:20:08;;;;;;;31.55;20.20;;;;;;;5.85;100.00;103171.06;5050146;28;20037;-28
2022/03/22 04:22:37;;;;;;;23.75;14.98;;;;;;;5.85;100.00;103175.75;5050022;28;20056;-27
2022/03/22 04:25:06;;;;;;;25.13;15.70;;;;;;;5.83;100.00;103173.19;5048951;28;20052;-33
2022/03/22 04:33:05;;;;;;;32.05;20.15;;;;;;;5.84;100.00;103177.66;5040117;28;20037;-30
2022/03/22 04:35:33;;;;;;;28.35;18.73;;;;;;;5.84;100.00;103172.13;5046323;28;20524;-33
2022/03/22 04:38:02;;;;;;;42.67;27.05;;;;;;;5.86;100.00;103178.31;5049107;28;20041;-27
2022/03/22 04:40:31;;;;;;;36.70;21.80;;;;;;;5.86;100.00;103180.22;5050165;28;20047;-37
2022/03/22 04:42:59;;;;;;;34.92;22.10;;;;;;;5.84;100.00;103180.44;5048098;28;20044;-32
2022/03/22 04:45:27;;;;;;;31.98;19.45;;;;;;;5.85;100.00;103184.06;5050645;28;20068;-30
2022/03/22 04:47:55;;;;;;;29.17;18.33;;;;;;;5.87;100.00;103179.16;5051150;28;20040;-30
2022/03/22 04:50:22;;;;;;;29.83;18.42;;;;;;;5.86;100.00;103181.09;5051536;28;20498;-33
2022/03/22 04:58:22;;;;;;;33.30;20.30;;;;;;;5.82;100.00;103176.16;5050114;28;20116;-27
2022/03/22 05:00:50;;;;;;;37.13;22.75;;;;;;;5.83;100.00;103175.97;5051777;28;20049;-33
2022/03/22 05:03:18;;;;;;;27.13;17.75;;;;;;;5.84;100.00;103177.66;5051441;28;20055;-32
2022/03/22 05:08:32;;;;;;;30.00;18.85;;;;;;;5.83;100.00;103175.97;5050780;28;20041;-31
2022/03/22 05:11:01;;;;;;;35.05;21.77;;;;;;;5.84;100.00;103177.66;5051257;28;20094;-30
2022/03/22 05:13:29;;;;;;;29.23;18.58;;;;;;;5.85;100.00;103184.06;5050611;28;20045;-32
2022/03/22 05:15:57;;;;;;;32.42;20.27;;;;;;;5.86;100.00;103180.22;5051848;28;20132;-32
2022/03/22 05:18:26;;;;;;;35.75;21.50;;;;;;;5.86;100.00;103180.22;5055649;28;20045;-31
2022/03/22 05:20:54;;;;;;;33.83;21.40;;;;;;;5.87;100.00;103188.34;5054630;28;20049;-34
2022/03/22 05:23:22;;;;;;;34.75;23.00;;;;;;;5.87;100.00;103182.78;5054928;28;20053;-32
2022/03/22 05:25:50;;;;;;;30.58;19.55;;;;;;;5.88;100.00;103190.06;5055370;28;20074;-31
2022/03/22 05:28:19;;;;;;;45.25;27.45;;;;;;;5.91;100.00;103197.13;5045466;28;20060;-32
2022/03/22 05:30:47;;;;;;;42.88;24.35;;;;;;;5.93;100.00;103197.75;5051067;28;20041;-31
2022/03/22 05:33:15;;;;;;;40.17;25.08;;;;;;;5.97;100.00;103198.19;5055172;28;20068;-30
2022/03/22 05:35:42;;;;;;;31.90;20.42;;;;;;;5.98;100.00;103206.31;5054156;28;20040;-32
2022/03/22 05:38:10;;;;;;;30.67;20.02;;;;;;;5.96;100.00;103208.44;5069182;28;20056;-34
2022/03/22 05:40:39;;;;;;;32.47;20.38;;;;;;;5.98;100.00;103209.06;5044717;28;20056;-33
2022/03/22 05:43:09;;;;;;;28.13;18.15;;;;;;;5.95;100.00;103201.19;5052354;28;20123;-25
2022/03/22 05:45:40;;;;;;;29.95;18.85;;;;;;;5.93;100.00;103205.22;5053658;28;20068;-25
2022/03/22 05:48:08;;;;;;;28.67;17.52;;;;;;;5.91;100.00;103205.44;5052938;28;20049;-28
2022/03/22 05:50:36;;;;;;;33.42;21.02;;;;;;;5.90;100.00;103202.88;5053451;28;20077;-27
2022/03/22 05:53:04;;;;;;;48.67;28.58;;;;;;;5.91;100.00;103204.56;5053466;28;20037;-29
2022/03/22 05:55:32;;;;;;;39.83;24.00;;;;;;;5.93;100.00;103205.22;5053116;28;20060;-32
2022/03/22 05:58:00;;;;;;;54.63;30.95;;;;;;;5.96;100.00;103210.34;5053253;28;20057;-31
2022/03/22 06:00:28;;;;;;;42.47;26.60;;;;;;;5.99;100.00;103209.94;5053604;28;20059;-32
2022/03/22 06:02:58;;;;;;;47.22;28.02;;;;;;;6.02;100.00;103212.25;5052368;28;20080;-31
2022/03/22 06:05:26;;;;;;;37.05;22.70;;;;;;;6.05;100.00;103215.47;5053663;28;20083;-33
2022/03/22 06:07:53;;;;;;;47.03;29.30;;;;;;;6.10;100.00;103203.75;5053412;28;20049;-37
2022/03/22 06:10:22;;;;;;;38.33;23.70;;;;;;;6.16;100.00;103208.44;5052589;28;20114;-30
2022/03/22 06:12:51;;;;;;;39.95;23.80;;;;;;;6.23;100.00;103212.91;5053530;28;20041;-28
2022/03/22 06:15:21;;;;;;;38.67;24.70;;;;;;;6.29;100.00;103218.69;5054184;28;20132;-30
2022/03/22 06:17:50;;;;;;;46.70;28.45;;;;;;;6.33;100.00;103214.41;5053404;28;20051;-30
2022/03/22 06:20:20;;;;;;;33.33;21.50;;;;;;;6.36;100.00;103208.44;5054281;28;20045;-32
2022/03/22 06:22:49;;;;;;;45.72;27.98;;;;;;;6.38;100.00;103212.72;5053358;28;20079;-30
2022/03/22 06:25:17;;;;;;;39.25;24.40;;;;;;;6.43;100.00;103217.59;5053135;28;20033;-34
2022/03/22 06:27:47;;;;;;;46.67;27.33;;;;;;;6.49;100.00;103214.84;5052258;28;20045;-31
2022/03/22 06:30:16;;;;;;;42.47;26.42;;;;;;;6.54;100.00;103212.28;5052608;28;20056;-31
2022/03/22 06:32:46;;;;;;;42.28;27.08;;;;;;;6.62;100.00;103221.44;5054156;28;20053;-29
2022/03/22 06:35:15;;;;;;;35.90;22.95;;;;;;;6.68;100.00;103213.09;5054073;28;20041;-32
2022/03/22 06:37:45;;;;;;;44.13;27.13;;;;;;;6.77;100.00;103219.28;5053234;28;20060;-34
2022/03/22 06:40:15;;;;;;;41.72;26.60;;;;;;;6.83;100.00;103232.28;5053854;28;20064;-31
2022/03/22 06:42:43;;;;;;;38.80;24.88;;;;;;;6.91;100.00;103229.28;5053798;28;20052;-32
2022/03/22 06:45:12;;;;;;;47.53;29.13;;;;;;;7.01;100.00;103239.94;5052970;28;20153;-28
2022/03/22 06:47:40;;;;;;;47.20;28.85;;;;;;;7.10;100.00;103238.63;5053931;28;20486;-31
2022/03/22 06:50:10;;;;;;;43.95;26.42;;;;;;;7.20;100.00;103234.31;5053669;28;20041;-33
2022/03/22 06:52:38;;;;;;;41.97;26.60;;;;;;;7.33;100.00;103238.13;5052990;28;20049;-32
2022/03/22 06:55:09;;;;;;;45.40;28.80;;;;;;;7.46;100.00;103238.06;5053354;28;20049;-32
2022/03/22 06:57:37;;;;;;;53.65;33.35;;;;;;;7.65;100.00;103251.03;5053930;28;20053;-31
2022/03/22 07:00:08;;;;;;;47.33;29.92;;;;;;;7.90;100.00;103248.31;5052563;28;20119;-29
2022/03/22 07:02:38;;;;;;;54.47;32.92;;;;;;;8.18;100.00;103253.50;5050136;28;20140;-30
2022/03/22 07:05:08;;;;;;;52.60;34.22;;;;;;;8.46;100.00;103253.09;5051435;28;20520;-31
2022/03/22 07:07:36;;;;;;;50.22;31.20;;;;;;;8.77;100.00;103257.75;5053431;28;20041;-32
2022/03/22 07:10:04;;;;;;;52.60;32.28;;;;;;;9.05;100.00;103255.31;5053395;28;20106;-31
2022/03/22 07:12:34;;;;;;;52.45;31.40;;;;;;;9.40;100.00;103255.56;5050834;28;20406;-32
2022/03/22 07:15:02;;;;;;;45.33;27.83;;;;;;;9.73;100.00;103257.94;5053234;28;20041;-31
2022/03/22 07:17:30;;;;;;;49.00;31.15;;;;;;;10.10;100.00;103255.91;5053110;28;20055;-32
2022/03/22 07:19:57;;;;;;;47.85;30.42;;;;;;;10.50;100.00;103255.31;5045031;28;20029;-31
2022/03/22 07:22:26;;;;;;;45.70;30.60;;;;;;;10.91;100.00;103259.97;5052828;28;20585;-29
2022/03/22 07:24:54;;;;;;;47.35;31.25;;;;;;;11.32;100.00;103262.59;5051757;28;20045;-31
2022/03/22 07:27:22;;;;;;;45.00;29.88;;;;;;;11.71;100.00;103265.66;5052155;28;20563;-33
2022/03/22 07:29:51;;;;;;;42.80;29.30;;;;;;;12.05;100.00;103267.50;5052973;28;20049;-36
2022/03/22 07:32:19;;;;;;;46.47;32.00;;;;;;;12.36;100.00;103262.47;5052883;28;20418;-32
2022/03/22 07:34:47;;;;;;;43.15;29.73;;;;;;;12.58;100.00;103271.00;5051946;28;20505;-35
2022/03/22 07:37:15;;;;;;;42.78;29.58;;;;;;;12.89;100.00;103272.31;5052874;28;20044;-29
2022/03/22 07:39:42;;;;;;;42.05;30.05;;;;;;;13.23;100.00;103273.16;5052083;28;20056;-31
2022/03/22 07:42:10;;;;;;;41.83;28.83;;;;;;;13.32;100.00;103266.84;5051681;28;20061;-34
2022/03/22 07:44:39;;;;;;;42.83;28.67;;;;;;;13.52;100.00;103271.03;5052634;28;20037;-31
2022/03/22 07:47:08;;;;;;;41.85;29.15;;;;;;;13.94;100.00;103266.53;5052512;28;20055;-30
2022/03/22 07:55:10;;;;;;;36.40;26.58;;;;;;;15.25;96.83;103274.44;5051879;28;20466;-34
2022/03/22 07:57:37;;;;;;;38.95;29.00;;;;;;;15.62;93.78;103276.34;5052204;28;20037;-32
2022/03/22 08:00:07;;;;;;;39.38;28.17;;;;;;;15.80;89.61;103264.59;5052246;28;20059;-35
2022/03/22 08:02:37;;;;;;;33.40;25.00;;;;;;;15.77;87.36;103266.03;5051563;28;20408;-32
2022/03/22 08:05:05;;;;;;;38.97;28.50;;;;;;;15.91;85.74;103265.50;5052307;28;20061;-30
2022/03/22 08:07:33;;;;;;;35.38;25.40;;;;;;;16.15;84.51;103263.88;5051945;28;20045;-33
2022/03/22 08:10:01;;;;;;;35.25;25.58;;;;;;;16.46;83.04;103268.41;5051341;28;20045;-29
2022/03/22 08:12:29;;;;;;;36.13;26.63;;;;;;;16.84;81.19;103274.66;5067442;28;20048;-36
2022/03/22 08:14:56;;;;;;;36.83;26.23;;;;;;;17.18;77.89;103272.94;5052201;28;20045;-30
2022/03/22 08:17:25;;;;;;;34.83;25.77;;;;;;;17.50;76.79;103278.22;5051255;28;20063;-33
2022/03/22 08:19:54;;;;;;;36.78;25.15;;;;;;;17.75;74.54;103271.66;5051905;28;20045;-32
2022/03/22 08:22:22;;;;;;;36.00;25.50;;;;;;;18.01;72.49;103271.50;5051132;28;20048;-30
2022/03/22 08:24:52;;;;;;;35.75;26.77;;;;;;;18.24;70.56;103270.81;5051714;28;20048;-30
2022/03/22 08:27:20;;;;;;;32.95;25.70;;;;;;;18.35;70.03;103274.41;5052076;28;20595;-33
2022/03/22 08:29:47;;;;;;;34.40;24.98;;;;;;;18.62;68.79;103276.78;5051102;28;20055;-32
2022/03/22 08:32:15;;;;;;;39.55;27.70;;;;;;;18.71;66.05;103269.34;5051996;28;20058;-37
2022/03/22 08:34:43;;;;;;;39.60;28.85;;;;;;;18.41;65.25;103276.06;5041258;28;20053;-39
2022/03/22 08:37:14;;;;;;;33.08;25.73;;;;;;;18.37;66.22;103270.16;5048455;28;20069;-37
2022/03/22 08:39:44;;;;;;;36.40;28.33;;;;;;;18.61;65.45;103277.91;5051736;28;20409;-33
2022/03/22 08:42:12;;;;;;;38.70;27.67;;;;;;;18.87;63.40;103283.06;5051653;28;20045;-32
2022/03/22 08:44:40;;;;;;;34.70;26.25;;;;;;;19.20;62.65;103280.47;5050993;28;20048;-34
2022/03/22 08:47:08;;;;;;;33.10;25.95;;;;;;;19.37;60.75;103285.69;5051521;28;20490;-37
2022/03/22 08:49:36;;;;;;;33.67;25.25;;;;;;;19.32;60.81;103280.94;5051485;28;20115;-34
2022/03/22 08:52:05;;;;;;;30.95;23.75;;;;;;;19.58;60.63;103279.50;5049701;28;20504;-30
2022/03/22 08:54:35;;;;;;;29.92;24.27;;;;;;;20.01;59.16;103268.19;5051563;28;20051;-31
2022/03/22 08:57:03;;;;;;;33.78;26.40;;;;;;;20.26;57.31;103267.81;5051561;28;20049;-32
2022/03/22 08:59:31;;;;;;;36.47;26.25;;;;;;;20.28;56.67;103271.19;5049387;28;20041;-31
2022/03/22 09:01:58;;;;;;;30.30;24.42;;;;;;;20.38;55.35;103269.41;5051362;28;20049;-29
2022/03/22 09:07:14;;;;;;;28.17;22.48;;;;;;;20.51;52.99;103271.44;5050360;28;20049;-35
2022/03/22 09:09:43;;;;;;;30.70;24.05;;;;;;;20.29;52.56;103267.22;5048012;28;20068;-36
2022/03/22 09:12:12;;;;;;;29.92;23.20;;;;;;;20.18;53.77;103271.34;5050738;28;20079;-32
2022/03/22 09:14:40;;;;;;;32.35;24.83;;;;;;;20.48;54.17;103274.91;5050987;28;20044;-32
2022/03/22 09:17:07;;;;;;;30.00;23.60;;;;;;;20.95;52.50;103269.00;5048385;28;20379;-32
2022/03/22 09:19:36;;;;;;;30.00;23.58;;;;;;;21.37;50.35;103269.09;5049231;28;20057;-28
2022/03/22 09:22:24;;;;;;;29.02;22.10;;;;;;;21.60;50.50;103268.03;5052037;28;20051;-37
2022/03/22 09:24:53;;;;;;;30.45;21.90;;;;;;;22.07;49.34;103269.59;5050953;28;20045;-34
2022/03/22 09:27:21;;;;;;;28.20;22.63;;;;;;;22.49;48.44;103265.47;5050568;28;20047;-38
2022/03/22 09:29:49;;;;;;;29.45;21.85;;;;;;;22.85;47.21;103265.41;5051154;28;20049;-30
2022/03/22 09:32:17;;;;;;;24.73;19.20;;;;;;;23.17;45.98;103266.31;5051165;28;20045;-33
2022/03/22 09:34:44;;;;;;;27.10;20.65;;;;;;;23.46;44.09;103269.44;5050407;28;20045;-34
2022/03/22 09:37:16;;;;;;;25.70;21.13;;;;;;;23.41;43.25;103263.03;5050900;28;20049;-37
2022/03/22 09:39:45;;;;;;;;;;;;;;;23.16;40.30;103268.31;5049322;28;20491;-34
2022/03/22 09:42:14;;;;;;;28.25;20.33;;;;;;;23.19;44.39;103264.78;5051260;28;19927;-32
2022/03/22 09:44:47;;;;;;;27.83;23.27;;;;;;;23.27;43.78;103261.16;5051057;28;20037;-30
2022/03/22 09:47:16;;;;;;;25.80;20.77;;;;;;;23.49;43.12;103259.41;5050718;28;20037;-28
2022/03/22 09:49:45;;;;;;;27.98;22.27;;;;;;;23.45;41.89;103261.22;5050948;28;20045;-32
2022/03/22 09:52:14;;;;;;;28.90;21.83;;;;;;;23.42;42.38;103270.41;5050797;28;20080;-35
2022/03/22 09:54:42;;;;;;;28.55;21.98;;;;;;;23.36;43.00;103259.19;5050376;28;20037;-27
2022/03/22 09:57:10;;;;;;;27.30;20.25;;;;;;;23.47;43.38;103259.72;5051071;28;20063;-29
2022/03/22 09:59:39;;;;;;;25.83;21.77;;;;;;;23.83;43.30;103261.53;5050885;28;20417;-35
2022/03/22 10:02:08;;;;;;;24.55;20.42;;;;;;;23.98;41.67;103267.59;5050532;28;20069;-30
2022/03/22 10:04:37;;;;;;;30.08;22.85;;;;;;;23.94;41.02;103262.94;5054554;28;20493;-30
2022/03/22 10:07:06;;;;;;;23.02;19.73;;;;;;;24.13;41.13;103254.91;5055038;28;20106;-38
2022/03/22 10:09:36;;;;;;;23.77;19.92;;;;;;;24.43;40.82;103252.25;5052586;28;20040;-31
2022/03/22 10:12:07;;;;;;;23.27;19.48;;;;;;;24.83;40.42;103245.16;5054373;28;20041;-29
2022/03/22 10:14:36;;;;;;;28.67;21.80;;;;;;;24.98;39.03;103256.06;5054497;28;20387;-37
2022/03/22 10:17:14;;;;;;;25.63;20.52;;;;;;;24.59;37.91;103251.38;5053490;28;20045;-30
2022/03/22 10:19:45;;;;;;;28.40;22.95;;;;;;;24.22;38.95;103252.88;5044270;28;20149;-33
2022/03/22 10:22:13;;;;;;;26.15;20.60;;;;;;;23.89;39.72;103252.50;5053368;28;20455;-36
2022/03/22 10:24:49;;;;;;;25.83;22.15;;;;;;;23.75;39.16;103257.50;5054432;28;20059;-30
2022/03/22 10:27:20;;;;;;;25.63;20.92;;;;;;;23.68;39.83;103254.28;5050765;28;20063;-32
2022/03/22 10:29:48;;;;;;;25.10;20.13;;;;;;;23.70;40.57;103246.25;5053334;28;20033;-33
2022/03/22 10:32:19;;;;;;;22.88;18.45;;;;;;;24.04;40.90;103248.31;5052863;28;20119;-37
2022/03/22 10:34:47;;;;;;;23.52;19.98;;;;;;;24.40;39.44;103239.47;5054542;28;20108;-31
2022/03/22 10:37:25;;;;;;;24.45;19.85;;;;;;;24.39;38.36;103246.38;5053122;28;20055;-31
2022/03/22 10:39:53;;;;;;;25.10;20.27;;;;;;;24.46;39.80;103241.00;5051083;28;20053;-35
2022/03/22 10:42:23;;;;;;;22.33;19.08;;;;;;;24.75;39.34;103250.88;5053672;28;20056;-32
2022/03/22 10:44:51;;;;;;;26.85;21.75;;;;;;;24.97;38.69;103242.97;5053258;28;20478;-35
2022/03/22 10:47:27;;;;;;;25.25;19.90;;;;;;;24.94;38.65;103237.06;5053880;28;20063;-37
2022/03/22 10:50:02;;;;;;;25.67;21.60;;;;;;;25.01;37.93;103243.94;5053786;28;20132;-38
2022/03/22 10:52:30;;;;;;;23.40;19.65;;;;;;;24.99;38.28;103243.44;5053569;28;20051;-29
2022/03/22 10:54:59;;;;;;;23.63;19.52;;;;;;;24.81;38.19;103244.63;5053488;28;20049;-30
2022/03/22 10:57:32;;;;;;;25.77;21.35;;;;;;;24.74;38.18;103250.06;5053055;28;20045;-28
2022/03/22 11:00:05;;;;;;;25.77;21.10;;;;;;;24.67;38.06;103244.00;5053595;28;20498;-29
2022/03/22 11:02:38;;;;;;;27.30;22.88;;;;;;;24.56;38.62;103248.41;5053559;28;20045;-28
2022/03/22 11:05:07;;;;;;;25.65;21.08;;;;;;;24.72;38.82;103240.97;5052532;28;20053;-29
2022/03/22 11:07:37;;;;;;;25.88;20.08;;;;;;;24.95;38.46;103239.63;5053620;28;20045;-30
2022/03/22 11:10:06;;;;;;;25.08;19.30;;;;;;;25.06;37.87;103234.38;5053280;28;20489;-29
2022/03/22 11:12:35;;;;;;;23.83;19.73;;;;;;;25.23;37.91;103237.16;5052443;28;20044;-31
2022/03/22 11:15:05;;;;;;;23.10;19.83;;;;;;;25.38;37.24;103236.59;5052351;28;20102;-28
2022/03/22 11:17:36;;;;;;;22.58;19.52;;;;;;;25.48;37.04;103238.22;5053271;28;20053;-33
2022/03/22 11:20:06;;;;;;;24.67;21.27;;;;;;;25.33;37.04;103242.50;5052593;28;20045;-29
2022/03/22 11:22:34;;;;;;;23.30;18.88;;;;;;;25.37;37.34;103237.78;5052949;28;20455;-29
2022/03/22 11:25:10;;;;;;;22.52;20.10;;;;;;;25.62;37.00;103238.84;5052953;28;20135;-29
2022/03/22 11:27:38;;;;;;;20.33;18.13;;;;;;;25.57;37.14;103236.19;5052906;28;20432;-30
2022/03/22 11:30:08;;;;;;;21.10;18.52;;;;;;;25.41;37.14;103221.59;5053008;28;20045;-29
2022/03/22 11:35:25;;;;;;;22.90;19.75;;;;;;;24.92;37.71;103228.84;5053041;28;20509;-29
2022/03/22 11:38:00;;;;;;;27.07;20.97;;;;;;;24.90;37.58;103228.34;5052949;28;20040;-36
2022/03/22 11:43:15;;;;;;;22.70;17.98;;;;;;;25.14;38.20;103221.25;5052833;28;20044;-33
2022/03/22 11:45:48;;;;;;;22.80;18.73;;;;;;;25.25;37.03;103231.94;5052685;28;20120;-30
2022/03/22 11:48:17;;;;;;;27.55;21.48;;;;;;;25.32;36.69;103229.41;5051896;28;20049;-33
2022/03/22 11:50:46;;;;;;;21.90;18.98;;;;;;;25.10;36.89;103223.94;5052549;28;20124;-35